Tankerton, United Kingdom
Current Conditions -  °F | °C
As of 2:20 PM on Tuesday 27 Jan 2015 (Local Time) from EGMC Reporting Station
Broken Clouds Broken Clouds  
Wind Chill:   Ceiling: 2300
Heat Index:   Visibility: 6mi
Dew Point:   Wind: 8mph
Humidity: 71%   Direction: 300°WNW
Pressure: 30.27"   Gusts: NA
Location:  51.36°N, 1.05°E
Report Text: EGMC 271420Z 30007KT 9999 BKN023 08/03 Q1025
Loading
Personal Weather Stations






























Interactive Weather Map New forecast layout! Learn more

10-Day Weather Forecast

Advertisements
Track Severe Weather on mobile